x

New York Harbor Entrance - 15 Nm Se Of Breezy Point , Ny (44065) Wave Buoy

12:50pm - Wed 26th Jul 2017 All times are EDT. -4 hours from GMT.

  • Sig Wave height 2.3ft
  • Swell Direction
  • Peak Period 5s
  • Average Period 5s
  • Wind
    4mph, 7mph gusts
  • Sea Temp 73°f
  • Air Temp 68°f
  • Sea Pressure 1023.5mb
  • New York Harbor Entrance - 15 Nm Se Of Breezy Point , Ny
  • New York Harbor Entrance - 15 Nm Se Of Breezy Point , Ny

More Historic Weather Station data

Upgrade to MSW Pro to gain access to the past 30 days of data for over 8000 Wavebouys and Weather Stations around the globe.

Join Pro

Comparision Forecast

View Surf forecast
   
Wed 07/26 12:50pm 2.5ft 5s 5s 4 7 mph 1023.5mb 73f 68f
11:50am 2.5ft 5s 5s 9 11 mph 1023.8mb 73f 68f
10:50am 2.5ft 7s 5s 11 16 mph 1023.6mb 73f 68f
9:50am 2.5ft 6s 4s 9 11 mph 1024.1mb 71f 67f
8:50am 2.5ft 6s 4s 11 13 mph 1024mb 71f 67f
7:50am 2ft 5s 4s 11 11 mph 1023.5mb 71f 67f
6:50am 2.5ft 7s 4s 9 11 mph 1023.3mb 70f 67f
5:50am 2.5ft 5s 4s 9 11 mph 1023.2mb 70f 67f
4:50am 2.5ft 5s 4s 11 16 mph 1022.5mb 70f 67f
3:50am 2.5ft 7s 5s 11 13 mph 1022.4mb 70f 67f
2:50am 2.5ft 8s 4s 9 13 mph 1022.8mb 71f 67f
1:50am 2.5ft 6s 4s 16 18 mph 1022.8mb 71f 67f
12:50am 2.5ft 7s 5s 11 13 mph 1022.7mb 71f 68f
Tue 07/25 11:50pm 2.5ft 6s 5s 11 13 mph 1022.5mb 71f 68f
10:50pm 2.5ft 7s 5s 11 13 mph 1022.3mb 71f 68f
9:50pm 2.5ft 7s 5s 11 16 mph 1021.9mb 71f 68f
8:50pm 2.5ft 6s 5s 11 13 mph 1021.3mb 70f 68f
7:50pm 2.5ft 7s 5s 11 13 mph 1021mb 70f 68f
6:50pm 2.5ft 8s 4s 16 18 mph 1020.2mb 70f 68f
5:50pm 2.5ft 7s 5s 11 13 mph 1020.2mb 69f 67f
4:50pm 2.5ft 6s 5s 9 11 mph 1020.1mb 70f 67f
3:50pm 2.5ft 6s 5s 9 9 mph 1019.9mb 70f 67f
2:50pm 3ft 6s 5s 9 11 mph 1019.5mb 71f 67f
1:50pm 3ft 7s 5s 9 11 mph 1019.2mb 71f 66f
12:50pm 3.5ft 7s 5s 9 11 mph 1018.9mb 71f 66f
11:50am 3.5ft 7s 5s 11 16 mph 1018.4mb 70f 66f
10:50am 3.5ft 6s 5s 13 16 mph 1017.7mb 70f 66f
9:50am 3.5ft 7s 5s 13 18 mph 1017.1mb 70f 66f
8:50am 3.5ft 7s 5s 16 18 mph 1016.6mb 71f 66f
7:50am 4ft 6s 5s 13 16 mph 1016.3mb 71f 64f
6:50am 4ft 7s 5s 16 18 mph 1015.7mb 71f 65f
5:50am 4ft 6s 5s 13 18 mph 1015.1mb 71f 65f
4:50am 3.5ft 6s 5s 16 18 mph 1014.5mb 71f 65f
3:50am 4ft 6s 5s 13 16 mph 1014.4mb 71f 65f
2:50am 3.5ft 6s 5s 16 18 mph 1014.1mb 71f 65f
1:50am 3.5ft 6s 5s 13 16 mph 1014.4mb 71f 66f
12:50am 3.5ft 6s 5s 11 13 mph 1014.3mb 71f 66f
Mon 07/24 11:50pm 3.5ft 7s 5s 13 18 mph 1013.5mb 71f 66f
10:50pm 4ft 7s 5s 11 16 mph 1013.3mb 72f 66f
9:50pm 4ft 7s 5s 18 22 mph 1011.9mb 72f 66f
8:50pm 3.5ft 8s 5s 18 20 mph 1010.9mb 73f 66f
7:50pm 3.5ft 6s 5s 16 20 mph 1011.2mb 74f 66f
6:50pm 3.5ft 7s 5s 11 16 mph 1011.2mb 74f 67f
5:50pm 3.5ft 7s 5s 11 13 mph 1010.7mb 74f 66f
4:50pm 4ft 7s 5s 13 16 mph 1010.3mb 73f 66f
3:50pm 4.5ft 7s 5s 13 18 mph 1010.1mb 73f 65f
2:50pm 5ft 7s 5s 20 27 mph 1009.5mb 73f 65f
1:50pm 5ft 7s 5s 22 27 mph 1008.6mb 73f 66f
12:50pm 5ft 7s 5s 22 27 mph 1007.6mb 73f 67f
11:50am 5ft 7s 5s 18 22 mph 1006.1mb 73f 72f
10:50am 5ft 6s 5s 9 11 mph 1006.3mb 73f 74f
9:50am 5.5ft 6s 5s 4 7 mph 1006.1mb 73f 74f
8:50am 5ft 6s 5s 9 16 mph 1006.6mb 73f 74f
7:50am 5.5ft 6s 5s 16 20 mph 1006.3mb 73f 74f
6:50am 5ft 5s 5s 16 20 mph 1006.6mb 73f 73f
5:50am 4.5ft 5s 5s 18 22 mph 1006.8mb 73f 72f
4:50am 4.5ft 5s 4s 22 27 mph 1006.5mb 73f 73f
3:50am 4.5ft 6s 5s 20 25 mph 1007.4mb 74f 73f
2:50am 4.5ft 5s 5s 20 22 mph 1008.4mb 75f 73f
1:50am 4ft 5s 5s 20 22 mph 1009.1mb 75f 74f
12:50am 4ft 7s 5s 18 20 mph 1009.8mb 76f 74f
Sun 07/23 11:50pm 4ft 7s 5s 20 22 mph 1010mb 76f 75f
10:50pm 3.5ft 7s 5s 18 20 mph 1010.1mb 76f 74f
9:50pm 3.5ft 7s 5s 16 18 mph 1010.3mb 76f 75f
8:50pm 3.5ft 7s 5s 16 18 mph 1009.8mb 76f 75f
7:50pm 3.5ft 7s 5s 13 16 mph 1009.9mb 76f 75f
6:50pm 3.5ft 7s 5s 18 20 mph 1009.3mb 76f 74f
5:50pm 3.5ft 8s 5s 16 18 mph 1009.6mb 76f 74f
4:50pm 3ft 6s 5s 13 16 mph 1009.6mb 76f 75f
3:50pm 3ft 7s 5s 9 11 mph 1009.4mb 76f 75f
2:50pm 3ft 6s 5s 9 11 mph 1009.5mb 76f 75f
1:50pm 3ft 6s 5s 11 13 mph 1009.6mb 76f 75f
12:50pm 3ft 7s 5s 9 11 mph 1009.7mb 76f 74f
11:50am 3ft 7s 5s 9 9 mph 1009.3mb 76f 74f
10:50am 2.5ft 7s 5s 7 9 mph 1008.9mb 76f 74f
9:50am 2.5ft 6s 5s 7 9 mph 1008.5mb 76f 73f
8:50am 2.5ft 7s 5s 7 9 mph 1008.1mb 76f 73f
7:50am 2.5ft 7s 5s 9 9 mph 1007.6mb 76f 73f
6:50am 2.5ft 6s 4s 9 11 mph 1007.2mb 76f 72f
5:50am 2.5ft 7s 4s 11 13 mph 1006.8mb 76f 73f
4:50am 2.5ft 6s 4s 11 11 mph 1006.9mb 76f 72f
3:50am 2.5ft 10s 4s 13 13 mph 1006.1mb 76f 72f
2:50am 2.5ft 6s 4s 16 18 mph 1005.9mb 76f 72f
1:50am 2.5ft 6s  -  22 25 mph 1006mb 76f 71f
12:50am 2.5ft 6s 5s 11 16 mph 1006mb 76f 74f
Sat 07/22 11:50pm 2ft 6s 6s 13 16 mph 1006.1mb 76f 74f
10:50pm 2ft 9s 5s 7 7 mph 1007.9mb 77f 74f
9:50pm 2ft 8s 5s 11 13 mph 1007.8mb 77f 75f
8:50pm 2ft 9s 5s 9 11 mph 1007.5mb 77f 77f
7:50pm 2ft 9s 5s 7 9 mph 1007.4mb 77f 78f
6:50pm 2ft 9s 5s 11 13 mph 1007.2mb 77f 78f